createdAt,value
2019-02-15T00:00:55.452Z,20.62
2019-02-15T00:03:23.829Z,20.61
2019-02-15T00:05:52.207Z,20.62
2019-02-15T00:08:20.589Z,20.60
2019-02-15T00:10:48.960Z,20.61
2019-02-15T00:13:17.356Z,20.60
2019-02-15T00:15:45.729Z,20.60
2019-02-15T00:18:15.738Z,20.58
2019-02-15T00:20:48.666Z,20.59
2019-02-15T00:23:17.047Z,20.58
2019-02-15T00:25:45.423Z,20.58
2019-02-15T00:28:13.800Z,20.57
2019-02-15T00:30:42.188Z,20.56
2019-02-15T00:33:10.554Z,20.56
2019-02-15T00:35:38.939Z,20.55
2019-02-15T00:38:07.311Z,20.54
2019-02-15T00:40:35.691Z,20.55
2019-02-15T00:43:04.061Z,20.54
2019-02-15T00:45:35.081Z,20.54
2019-02-15T00:48:05.095Z,20.53
2019-02-15T00:50:43.979Z,20.53
2019-02-15T00:53:30.523Z,20.54
2019-02-15T00:56:11.922Z,20.53
2019-02-15T00:58:58.468Z,20.51
2019-02-15T01:01:31.290Z,20.50
2019-02-15T01:04:04.277Z,20.49
2019-02-15T01:06:37.632Z,20.47
2019-02-15T01:09:11.387Z,20.46
2019-02-15T01:11:41.401Z,20.46
2019-02-15T01:14:09.787Z,20.46
2019-02-15T01:16:38.164Z,20.44
2019-02-15T01:19:06.552Z,20.45
2019-02-15T01:21:34.925Z,20.44
2019-02-15T01:24:03.705Z,20.42
2019-02-15T01:26:33.718Z,20.43
2019-02-15T01:29:21.630Z,20.43
2019-02-15T01:32:09.466Z,20.42
2019-02-15T01:34:48.296Z,20.42
2019-02-15T01:37:20.747Z,20.42
2019-02-15T01:40:02.871Z,20.40
2019-02-15T01:42:41.633Z,20.38
2019-02-15T01:45:26.805Z,20.37
2019-02-15T01:47:55.183Z,20.37
2019-02-15T01:50:23.572Z,20.36
2019-02-15T01:52:51.983Z,20.36
2019-02-15T01:55:20.361Z,20.34
2019-02-15T01:57:48.734Z,20.34
2019-02-15T02:00:18.488Z,20.35
2019-02-15T02:02:46.863Z,20.36
2019-02-15T02:05:15.245Z,20.35
2019-02-15T02:07:43.986Z,20.35
2019-02-15T02:10:12.444Z,20.35
2019-02-15T02:12:40.817Z,20.35
2019-02-15T02:15:10.406Z,20.35
2019-02-15T02:17:38.780Z,20.33
2019-02-15T02:20:09.435Z,20.34
2019-02-15T02:22:37.807Z,20.34
2019-02-15T02:25:07.540Z,20.34
2019-02-15T02:27:35.933Z,20.34
2019-02-15T02:30:07.834Z,20.33
2019-02-15T02:32:36.212Z,20.33
2019-02-15T02:35:06.339Z,20.33
2019-02-15T02:37:34.720Z,20.34
2019-02-15T02:40:03.127Z,20.32
2019-02-15T02:42:31.504Z,20.32
2019-02-15T02:44:59.910Z,20.31
2019-02-15T02:47:28.292Z,20.30
2019-02-15T02:49:56.690Z,20.30
2019-02-15T02:52:25.073Z,20.29
2019-02-15T02:54:53.712Z,20.28
2019-02-15T02:57:22.088Z,20.28
2019-02-15T02:59:50.477Z,20.29
2019-02-15T03:02:18.878Z,20.28
2019-02-15T03:04:47.250Z,20.27
2019-02-15T03:07:15.640Z,20.27
2019-02-15T03:09:44.022Z,20.26
2019-02-15T03:12:12.465Z,20.26
2019-02-15T03:14:40.846Z,20.25
2019-02-15T03:17:09.236Z,20.24
2019-02-15T03:19:37.617Z,20.25
2019-02-15T03:22:06.015Z,20.25
2019-02-15T03:24:34.584Z,20.23
2019-02-15T03:27:02.974Z,20.24
2019-02-15T03:29:31.352Z,20.23
2019-02-15T03:31:59.747Z,20.24
2019-02-15T03:34:28.122Z,20.21
2019-02-15T03:37:00.994Z,20.22
2019-02-15T03:39:37.173Z,20.21
2019-02-15T03:42:05.572Z,20.20
2019-02-15T03:44:34.757Z,20.20
2019-02-15T03:47:03.148Z,20.20
2019-02-15T03:49:31.552Z,20.20
2019-02-15T03:51:59.925Z,20.19
2019-02-15T03:54:28.389Z,20.19
2019-02-15T03:56:56.781Z,20.19
2019-02-15T03:59:25.331Z,20.19
2019-02-15T04:01:53.788Z,20.18
2019-02-15T04:04:22.162Z,20.17
2019-02-15T04:06:50.549Z,20.17
2019-02-15T04:09:18.926Z,20.16
2019-02-15T04:11:47.321Z,20.17
2019-02-15T04:14:15.703Z,20.15
2019-02-15T04:16:44.091Z,20.15
2019-02-15T04:19:12.473Z,20.15
2019-02-15T04:21:40.853Z,20.13
2019-02-15T04:24:09.239Z,20.13
2019-02-15T04:26:37.636Z,20.14
2019-02-15T04:29:06.022Z,20.14
2019-02-15T04:31:35.124Z,20.13
2019-02-15T04:34:03.512Z,20.12
2019-02-15T04:36:31.909Z,20.12
2019-02-15T04:39:00.287Z,20.12
2019-02-15T04:41:28.674Z,20.11
2019-02-15T04:43:57.050Z,20.09
2019-02-15T04:46:25.439Z,20.08
2019-02-15T04:48:53.816Z,20.07
2019-02-15T04:51:22.206Z,20.05
2019-02-15T04:53:50.589Z,20.04
2019-02-15T04:56:18.982Z,20.04
2019-02-15T04:58:47.365Z,20.02
2019-02-15T05:01:15.768Z,20.02
2019-02-15T05:03:44.142Z,20.00
2019-02-15T05:06:12.540Z,19.98
2019-02-15T05:08:40.926Z,19.99
2019-02-15T05:11:09.353Z,19.98
2019-02-15T05:13:37.733Z,19.96
2019-02-15T05:16:06.114Z,19.94
2019-02-15T05:18:35.518Z,19.93
2019-02-15T05:21:03.917Z,19.94
2019-02-15T05:23:32.302Z,19.94
2019-02-15T05:26:00.704Z,19.90
2019-02-15T05:28:29.085Z,19.85
2019-02-15T05:30:57.464Z,19.89
2019-02-15T05:33:25.898Z,19.88
2019-02-15T05:35:54.278Z,19.88
2019-02-15T05:38:22.668Z,19.87
2019-02-15T05:40:51.045Z,19.87
2019-02-15T05:43:19.441Z,19.85
2019-02-15T05:45:47.830Z,19.87
2019-02-15T05:48:16.261Z,19.86
2019-02-15T05:50:44.603Z,19.86
2019-02-15T05:53:13.071Z,19.86
2019-02-15T05:55:41.450Z,19.82
2019-02-15T05:58:09.840Z,19.83
2019-02-15T06:00:38.227Z,19.82
2019-02-15T06:03:06.607Z,19.83
2019-02-15T06:05:35.753Z,19.83
2019-02-15T06:08:04.143Z,19.84
2019-02-15T06:10:32.517Z,19.83
2019-02-15T06:13:00.907Z,19.82
2019-02-15T06:15:29.292Z,19.84
2019-02-15T06:17:57.682Z,19.81
2019-02-15T06:20:26.063Z,19.82
2019-02-15T06:22:54.463Z,19.81
2019-02-15T06:25:22.855Z,19.80
2019-02-15T06:27:51.246Z,19.80
2019-02-15T06:30:19.626Z,19.80
2019-02-15T06:32:48.061Z,19.81
2019-02-15T06:35:16.396Z,19.78
2019-02-15T06:37:44.799Z,19.78
2019-02-15T06:40:13.195Z,19.73
2019-02-15T06:42:41.566Z,19.69
2019-02-15T06:45:10.014Z,19.77
2019-02-15T06:47:38.412Z,19.86
2019-02-15T06:50:07.969Z,19.84
2019-02-15T06:52:36.368Z,19.76
2019-02-15T06:55:05.671Z,19.70
2019-02-15T06:57:34.195Z,19.66
2019-02-15T07:00:20.595Z,19.63
2019-02-15T07:02:56.683Z,19.58
2019-02-15T07:05:25.606Z,19.56
2019-02-15T07:07:53.995Z,19.58
2019-02-15T07:10:22.429Z,19.59
2019-02-15T07:12:50.821Z,19.64
2019-02-15T07:15:19.196Z,19.67
2019-02-15T07:17:47.585Z,19.72
2019-02-15T07:20:15.967Z,19.77
2019-02-15T07:22:44.534Z,19.83
2019-02-15T07:25:13.087Z,19.87
2019-02-15T07:27:41.486Z,19.91
2019-02-15T07:30:15.474Z,19.94
2019-02-15T07:32:44.051Z,19.99
2019-02-15T07:35:12.584Z,20.04
2019-02-15T07:37:40.990Z,20.09
2019-02-15T07:40:10.420Z,20.14
2019-02-15T07:42:38.801Z,20.19
2019-02-15T07:45:09.728Z,20.22
2019-02-15T07:47:38.119Z,20.28
2019-02-15T07:50:12.467Z,20.31
2019-02-15T07:52:40.852Z,20.36
2019-02-15T07:55:09.509Z,20.43
2019-02-15T07:57:37.888Z,20.47
2019-02-15T08:00:10.368Z,20.52
2019-02-15T08:02:38.757Z,20.56
2019-02-15T08:05:08.792Z,20.63
2019-02-15T08:07:37.257Z,20.68
2019-02-15T08:10:08.391Z,20.72
2019-02-15T08:12:37.294Z,20.78
2019-02-15T08:15:08.121Z,20.82
2019-02-15T08:17:37.393Z,20.87
2019-02-15T08:20:09.133Z,20.93
2019-02-15T08:22:37.508Z,20.98
2019-02-15T08:25:06.346Z,21.02
2019-02-15T08:27:34.718Z,21.07
2019-02-15T08:30:03.106Z,21.11
2019-02-15T08:32:31.484Z,21.15
2019-02-15T08:34:59.870Z,21.18
2019-02-15T08:37:28.252Z,21.23
2019-02-15T08:39:56.643Z,21.27
2019-02-15T08:42:25.033Z,21.32
2019-02-15T08:44:53.415Z,21.37
2019-02-15T08:47:21.792Z,21.41
2019-02-15T08:49:50.225Z,21.45
2019-02-15T08:52:18.607Z,21.49
2019-02-15T08:54:46.997Z,21.53
2019-02-15T08:57:15.378Z,21.58
2019-02-15T08:59:43.767Z,21.62
2019-02-15T09:02:19.862Z,21.67
2019-02-15T09:04:48.250Z,21.71
2019-02-15T09:07:16.632Z,21.75
2019-02-15T09:09:45.022Z,21.81
2019-02-15T09:12:13.403Z,21.85
2019-02-15T09:14:41.848Z,21.89
2019-02-15T09:17:11.766Z,21.93
2019-02-15T09:19:40.191Z,21.96
2019-02-15T09:22:08.593Z,22.02
2019-02-15T09:24:37.949Z,22.05
2019-02-15T09:27:07.981Z,22.08
2019-02-15T09:29:36.371Z,22.07
2019-02-15T09:32:04.753Z,22.17
2019-02-15T09:34:33.202Z,22.21
2019-02-15T09:37:01.535Z,22.25
2019-02-15T09:39:29.926Z,22.30
2019-02-15T09:41:58.305Z,22.35
2019-02-15T09:44:26.708Z,22.39
2019-02-15T09:46:55.085Z,22.43
2019-02-15T09:49:24.345Z,22.47
2019-02-15T09:51:52.747Z,22.51
2019-02-15T09:54:21.135Z,22.55
2019-02-15T09:56:49.513Z,22.59
2019-02-15T09:59:17.905Z,22.61
2019-02-15T10:01:46.290Z,22.66
2019-02-15T10:04:14.684Z,22.69
2019-02-15T10:06:43.064Z,22.73
2019-02-15T10:09:11.449Z,22.76
2019-02-15T10:11:39.831Z,22.78
2019-02-15T10:14:08.444Z,22.82
2019-02-15T10:16:36.831Z,22.84
2019-02-15T10:19:05.221Z,22.87
2019-02-15T10:21:33.600Z,22.90
2019-02-15T10:24:01.985Z,22.93
2019-02-15T10:26:30.452Z,22.95
2019-02-15T10:28:58.829Z,22.98
2019-02-15T10:31:27.464Z,23.00
2019-02-15T10:33:55.845Z,23.01
2019-02-15T10:36:24.234Z,23.00
2019-02-15T10:38:52.652Z,23.01
2019-02-15T10:41:21.103Z,23.02
2019-02-15T10:43:49.475Z,23.02
2019-02-15T10:46:17.861Z,23.01
2019-02-15T10:48:46.241Z,23.01
2019-02-15T10:51:14.638Z,23.00
2019-02-15T10:53:43.017Z,23.00
2019-02-15T10:56:12.321Z,22.99
2019-02-15T10:58:40.700Z,22.98
2019-02-15T11:01:09.090Z,22.98
2019-02-15T11:03:37.473Z,22.99
2019-02-15T11:06:05.874Z,23.00
2019-02-15T11:08:34.254Z,23.03
2019-02-15T11:11:02.644Z,23.05
2019-02-15T11:13:31.095Z,23.11
2019-02-15T11:15:59.498Z,23.15
2019-02-15T11:18:27.869Z,23.19
2019-02-15T11:20:56.259Z,23.24
2019-02-15T11:23:24.641Z,23.29
2019-02-15T11:25:53.051Z,23.32
2019-02-15T11:28:21.406Z,23.37
2019-02-15T11:30:49.799Z,23.43
2019-02-15T11:33:18.183Z,23.48
2019-02-15T11:35:46.574Z,23.54
2019-02-15T11:38:14.966Z,23.57
2019-02-15T11:40:43.350Z,23.63
2019-02-15T11:43:11.732Z,23.68
2019-02-15T11:45:40.128Z,23.72
2019-02-15T11:48:09.086Z,23.76
2019-02-15T11:50:37.484Z,23.79
2019-02-15T11:53:05.881Z,23.82
2019-02-15T11:55:34.274Z,23.86
2019-02-15T11:58:02.652Z,23.90
2019-02-15T12:00:35.409Z,23.93
2019-02-15T12:03:04.360Z,23.97
2019-02-15T12:05:32.750Z,24.01
2019-02-15T12:08:01.137Z,24.05
2019-02-15T12:10:29.525Z,24.07
2019-02-15T12:12:57.902Z,24.10
2019-02-15T12:15:26.289Z,24.12
2019-02-15T12:17:54.667Z,24.15
2019-02-15T12:20:23.054Z,24.18
2019-02-15T12:22:51.433Z,24.18
2019-02-15T12:25:19.824Z,24.22
2019-02-15T12:27:48.225Z,24.24
2019-02-15T12:30:16.680Z,24.25
2019-02-15T12:32:45.111Z,24.29
2019-02-15T12:35:13.510Z,24.31
2019-02-15T12:37:41.906Z,24.33
2019-02-15T12:40:11.529Z,24.35
2019-02-15T12:42:39.920Z,24.35
2019-02-15T12:45:10.842Z,24.36
2019-02-15T12:47:39.789Z,24.37
2019-02-15T12:50:16.225Z,24.36
2019-02-15T12:52:44.616Z,24.36
2019-02-15T12:55:13.070Z,24.36
2019-02-15T12:57:41.458Z,24.36
2019-02-15T13:00:19.108Z,24.35
2019-02-15T13:02:47.496Z,24.33
2019-02-15T13:05:15.879Z,24.31
2019-02-15T13:07:44.268Z,24.29
2019-02-15T13:10:14.931Z,24.26
2019-02-15T13:12:43.319Z,24.25
2019-02-15T13:15:12.441Z,24.23
2019-02-15T13:17:40.943Z,24.22
2019-02-15T13:20:10.991Z,24.20
2019-02-15T13:22:40.106Z,24.17
2019-02-15T13:25:08.846Z,24.16
2019-02-15T13:27:37.310Z,24.14
2019-02-15T13:30:08.739Z,24.14
2019-02-15T13:32:37.127Z,24.13
2019-02-15T13:35:07.740Z,24.12
2019-02-15T13:37:36.124Z,24.10
2019-02-15T13:40:06.041Z,24.09
2019-02-15T13:42:34.587Z,24.06
2019-02-15T13:45:03.142Z,24.05
2019-02-15T13:47:34.585Z,24.02
2019-02-15T13:50:01.660Z,24.00
2019-02-15T13:52:30.035Z,23.99
2019-02-15T13:54:58.423Z,23.96
2019-02-15T13:57:26.981Z,23.94
2019-02-15T13:59:55.365Z,23.91
2019-02-15T14:02:23.769Z,23.89
2019-02-15T14:04:52.234Z,23.85
2019-02-15T14:07:20.646Z,23.86
2019-02-15T14:09:49.044Z,23.83
2019-02-15T14:12:17.405Z,23.77
2019-02-15T14:14:45.789Z,23.73
2019-02-15T14:17:14.217Z,23.70
2019-02-15T14:19:42.583Z,23.64
2019-02-15T14:22:10.975Z,23.64
2019-02-15T14:24:39.355Z,23.61
2019-02-15T14:27:07.744Z,23.59
2019-02-15T14:29:36.132Z,23.58
2019-02-15T14:32:04.517Z,23.54
2019-02-15T14:34:32.902Z,23.51
2019-02-15T14:37:01.307Z,23.48
2019-02-15T14:39:29.673Z,23.47
2019-02-15T14:41:58.068Z,23.44
2019-02-15T14:44:26.454Z,23.43
2019-02-15T14:46:54.849Z,23.40
2019-02-15T14:49:23.235Z,23.39
2019-02-15T14:51:51.862Z,23.37
2019-02-15T14:54:20.243Z,23.35
2019-02-15T14:56:48.666Z,23.32
2019-02-15T14:59:17.057Z,23.31
2019-02-15T15:01:45.985Z,23.28
2019-02-15T15:04:14.377Z,23.27
2019-02-15T15:06:42.755Z,23.24
2019-02-15T15:09:11.151Z,23.23
2019-02-15T15:11:39.564Z,23.21
2019-02-15T15:14:07.981Z,23.18
2019-02-15T15:16:36.456Z,23.16
2019-02-15T15:19:04.851Z,23.13
2019-02-15T15:21:34.949Z,23.12
2019-02-15T15:24:03.443Z,23.12
2019-02-15T15:26:31.855Z,23.09
2019-02-15T15:29:00.239Z,23.07
2019-02-15T15:31:28.627Z,23.04
2019-02-15T15:33:57.043Z,23.03
2019-02-15T15:36:25.405Z,23.01
2019-02-15T15:38:53.802Z,22.99
2019-02-15T15:41:22.190Z,22.97
2019-02-15T15:43:50.590Z,22.95
2019-02-15T15:46:18.982Z,22.93
2019-02-15T15:48:47.364Z,22.90
2019-02-15T15:51:15.746Z,22.88
2019-02-15T15:53:44.138Z,22.86
2019-02-15T15:56:12.519Z,22.85
2019-02-15T15:58:41.297Z,22.83
2019-02-15T16:01:09.690Z,22.81
2019-02-15T16:03:39.077Z,22.80
2019-02-15T16:06:07.455Z,22.79
2019-02-15T16:08:35.854Z,22.77
2019-02-15T16:11:04.244Z,22.75
2019-02-15T16:13:32.632Z,22.74
2019-02-15T16:16:01.010Z,22.71
2019-02-15T16:18:34.628Z,22.70
2019-02-15T16:20:59.507Z,22.67
2019-02-15T16:23:27.898Z,22.66
2019-02-15T16:25:56.286Z,22.64
2019-02-15T16:28:24.677Z,22.62
2019-02-15T16:30:53.060Z,22.61
2019-02-15T16:33:21.459Z,22.59
2019-02-15T16:35:49.835Z,22.57
2019-02-15T16:38:18.225Z,22.56
2019-02-15T16:40:46.606Z,22.54
2019-02-15T16:43:15.170Z,22.52
2019-02-15T16:45:43.547Z,22.50
2019-02-15T16:48:12.008Z,22.49
2019-02-15T16:50:40.443Z,22.48
2019-02-15T16:53:08.903Z,22.45
2019-02-15T16:55:37.305Z,22.45
2019-02-15T16:58:05.706Z,22.43
2019-02-15T17:00:34.084Z,22.41
2019-02-15T17:03:02.473Z,22.39
2019-02-15T17:05:30.854Z,22.37
2019-02-15T17:07:59.230Z,22.35
2019-02-15T17:10:27.625Z,22.32
2019-02-15T17:12:56.014Z,22.32
2019-02-15T17:15:24.394Z,22.29
2019-02-15T17:17:52.779Z,22.29
2019-02-15T17:20:21.214Z,22.29
2019-02-15T17:22:49.557Z,22.27
2019-02-15T17:25:17.942Z,22.27
2019-02-15T17:27:46.317Z,22.24
2019-02-15T17:30:14.745Z,22.21
2019-02-15T17:32:43.091Z,22.20
2019-02-15T17:35:12.541Z,22.18
2019-02-15T17:37:40.926Z,22.16
2019-02-15T17:40:14.706Z,22.14
2019-02-15T17:42:43.093Z,22.14
2019-02-15T17:45:12.690Z,22.12
2019-02-15T17:47:42.122Z,22.09
2019-02-15T17:50:11.655Z,22.10
2019-02-15T17:52:40.308Z,22.08
2019-02-15T17:55:10.608Z,22.07
2019-02-15T17:57:39.227Z,22.06
2019-02-15T18:00:12.722Z,22.03
2019-02-15T18:02:41.106Z,22.03
2019-02-15T18:05:12.080Z,22.01
2019-02-15T18:07:40.464Z,21.99
2019-02-15T18:10:08.866Z,21.97
2019-02-15T18:12:37.475Z,21.96
2019-02-15T18:15:06.657Z,21.96
2019-02-15T18:17:34.997Z,21.94
2019-02-15T18:20:03.957Z,21.92
2019-02-15T18:22:32.340Z,21.89
2019-02-15T18:25:00.730Z,21.90
2019-02-15T18:27:29.106Z,21.88
2019-02-15T18:29:57.501Z,21.86
2019-02-15T18:32:25.880Z,21.85
2019-02-15T18:34:54.273Z,21.83
2019-02-15T18:37:22.684Z,21.81
2019-02-15T18:39:51.043Z,21.80
2019-02-15T18:42:19.466Z,21.77
2019-02-15T18:44:47.931Z,21.77
2019-02-15T18:47:16.302Z,21.75
2019-02-15T18:49:44.716Z,21.75
2019-02-15T18:52:13.097Z,21.74
2019-02-15T18:54:41.499Z,21.73
2019-02-15T18:57:09.900Z,21.73
2019-02-15T18:59:38.315Z,21.72
2019-02-15T19:02:06.702Z,21.71
2019-02-15T19:04:35.090Z,21.69
2019-02-15T19:07:03.469Z,21.68
2019-02-15T19:09:31.866Z,21.66
2019-02-15T19:12:00.244Z,21.66
2019-02-15T19:14:28.640Z,21.64
2019-02-15T19:16:57.022Z,21.64
2019-02-15T19:19:29.108Z,21.64
2019-02-15T19:21:55.521Z,21.63
2019-02-15T19:24:23.909Z,21.62
2019-02-15T19:26:52.297Z,21.60
2019-02-15T19:29:20.675Z,21.58
2019-02-15T19:31:49.066Z,21.57
2019-02-15T19:34:17.448Z,21.55
2019-02-15T19:36:45.861Z,21.55
2019-02-15T19:39:14.237Z,21.56
2019-02-15T19:41:43.021Z,21.56
2019-02-15T19:44:11.403Z,21.54
2019-02-15T19:46:39.837Z,21.53
2019-02-15T19:49:08.275Z,21.53
2019-02-15T19:51:36.676Z,21.51
2019-02-15T19:54:05.064Z,21.47
2019-02-15T19:56:33.469Z,21.47
2019-02-15T19:59:01.887Z,21.47
2019-02-15T20:01:30.279Z,21.45
2019-02-15T20:03:58.716Z,21.44
2019-02-15T20:06:27.126Z,21.44
2019-02-15T20:08:55.555Z,21.44
2019-02-15T20:11:24.038Z,21.43
2019-02-15T20:13:52.462Z,21.41
2019-02-15T20:16:20.853Z,21.41
2019-02-15T20:18:49.289Z,21.42
2019-02-15T20:21:17.735Z,21.41
2019-02-15T20:23:46.167Z,21.40
2019-02-15T20:26:14.571Z,21.40
2019-02-15T20:28:43.446Z,21.38
2019-02-15T20:31:11.852Z,21.41
2019-02-15T20:33:40.241Z,21.41
2019-02-15T20:36:08.650Z,21.46
2019-02-15T20:38:37.043Z,21.44
2019-02-15T20:41:05.449Z,21.45
2019-02-15T20:43:33.845Z,21.43
2019-02-15T20:46:02.253Z,21.41
2019-02-15T20:48:30.654Z,21.40
2019-02-15T20:50:59.066Z,21.39
2019-02-15T20:53:27.458Z,21.38
2019-02-15T20:55:55.844Z,21.37
2019-02-15T20:58:24.291Z,21.39
2019-02-15T21:00:52.652Z,21.41
2019-02-15T21:03:21.061Z,21.41
2019-02-15T21:05:49.463Z,21.43
2019-02-15T21:08:17.863Z,21.44
2019-02-15T21:10:54.402Z,21.45
2019-02-15T21:13:20.462Z,21.45
2019-02-15T21:15:46.769Z,21.46
2019-02-15T21:18:15.178Z,21.46
2019-02-15T21:20:43.855Z,21.46
2019-02-15T21:25:32.956Z,21.51
2019-02-15T21:28:01.358Z,21.48
2019-02-15T21:30:29.758Z,21.49
2019-02-15T21:32:58.162Z,21.49
2019-02-15T21:35:26.549Z,21.53
2019-02-15T21:37:54.947Z,21.54
2019-02-15T21:40:23.338Z,21.55
2019-02-15T21:42:52.267Z,21.58
2019-02-15T21:45:20.813Z,21.59
2019-02-15T21:47:49.210Z,21.61
2019-02-15T21:50:17.877Z,21.64
2019-02-15T21:52:46.275Z,21.64
2019-02-15T21:55:15.903Z,21.67
2019-02-15T21:57:44.294Z,21.70
2019-02-15T22:00:18.443Z,21.73
2019-02-15T22:02:46.844Z,21.77
2019-02-15T22:05:15.969Z,21.81
2019-02-15T22:07:44.380Z,21.85
2019-02-15T22:10:12.785Z,21.88
2019-02-15T22:12:41.184Z,21.91
2019-02-15T22:15:17.106Z,21.95
2019-02-15T22:17:45.518Z,21.97
2019-02-15T22:20:15.530Z,22.01
2019-02-15T22:22:44.541Z,22.04
2019-02-15T22:25:13.399Z,22.08
2019-02-15T22:27:41.787Z,22.10
2019-02-15T22:30:12.604Z,22.14
2019-02-15T22:32:42.533Z,22.16
2019-02-15T22:35:11.241Z,22.23
2019-02-15T22:37:39.649Z,22.28
2019-02-15T22:40:31.468Z,22.35
2019-02-15T22:43:17.800Z,22.43
2019-02-15T22:45:46.189Z,22.48
2019-02-15T22:48:14.590Z,22.55
2019-02-15T22:50:42.980Z,22.61
2019-02-15T22:53:11.372Z,22.67
2019-02-15T22:55:39.761Z,22.72
2019-02-15T22:58:08.162Z,22.79
2019-02-15T23:00:54.361Z,22.83
2019-02-15T23:03:24.710Z,22.89
2019-02-15T23:05:53.086Z,22.93
2019-02-15T23:08:21.490Z,22.98
2019-02-15T23:10:49.879Z,23.05
2019-02-15T23:13:18.284Z,23.07
2019-02-15T23:15:46.669Z,23.10
2019-02-15T23:18:15.064Z,23.15
2019-02-15T23:20:45.449Z,23.20
2019-02-15T23:23:13.600Z,23.24
2019-02-15T23:25:41.993Z,23.26
2019-02-15T23:28:10.424Z,23.31
2019-02-15T23:30:38.814Z,23.33
2019-02-15T23:33:07.214Z,23.36
2019-02-15T23:35:35.633Z,23.39
2019-02-15T23:38:04.027Z,23.41
2019-02-15T23:40:32.680Z,23.44
2019-02-15T23:43:01.081Z,23.45
2019-02-15T23:45:29.522Z,23.48
2019-02-15T23:47:57.901Z,23.51
2019-02-15T23:50:26.284Z,23.53
2019-02-15T23:52:54.680Z,23.54
2019-02-15T23:55:23.069Z,23.55
2019-02-15T23:57:51.506Z,23.55
